Time;durP1;ratioP1;P1;durP2;ratioP2;P2;SDS_P1;SDS_P2;PMS_P1;PMS_P2;Temp;Humidity;BMP_temperature;BMP_pressure;BME280_temperature;BME280_humidity;BME280_pressure;Samples;Min_cycle;Max_cycle;Signal;HPM_P1;HPM_P2
2022/09/18 00:01:26;;;;;;;8.97;2.30;;;11.20;99.90;;;;;;4995808;28;20696;-76
2022/09/18 00:03:56;;;;;;;10.47;3.37;;;11.20;99.90;;;;;;4994747;28;20603;-78
2022/09/18 00:06:26;;;;;;;7.13;2.83;;;11.20;99.90;;;;;;4998791;28;20308;-76
2022/09/18 00:08:56;;;;;;;5.73;1.97;;;11.20;99.90;;;;;;4993501;28;20225;-75
2022/09/18 00:11:29;;;;;;;10.07;3.00;;;11.20;99.90;;;;;;4997424;28;20218;-75
2022/09/18 00:13:56;;;;;;;5.57;2.13;;;11.20;99.90;;;;;;4995360;28;20248;-77
2022/09/18 00:16:24;;;;;;;7.23;2.67;;;11.20;99.90;;;;;;4997647;28;20323;-76
2022/09/18 00:18:51;;;;;;;7.47;2.53;;;11.30;99.90;;;;;;4997082;28;20252;-77
2022/09/18 00:21:23;;;;;;;8.63;2.93;;;11.20;99.90;;;;;;4997428;28;20215;-77
2022/09/18 00:23:55;;;;;;;11.57;2.70;;;11.10;99.90;;;;;;4980836;28;20224;-75
2022/09/18 00:26:24;;;;;;;14.10;3.13;;;11.30;99.90;;;;;;4989332;28;20216;-76
2022/09/18 00:28:53;;;;;;;7.97;3.20;;;11.20;99.90;;;;;;4999240;28;20217;-75
2022/09/18 00:31:26;;;;;;;10.93;3.90;;;11.30;99.90;;;;;;4998513;28;20308;-76
2022/09/18 00:33:53;;;;;;;11.17;2.37;;;11.30;99.90;;;;;;4998283;28;20292;-76
2022/09/18 00:36:20;;;;;;;15.73;4.07;;;11.30;99.90;;;;;;4994286;28;20191;-73
2022/09/18 00:38:48;;;;;;;8.63;2.67;;;11.30;99.90;;;;;;4995542;28;20565;-73
2022/09/18 00:41:23;;;;;;;8.23;3.00;;;11.40;99.90;;;;;;4993261;28;20304;-73
2022/09/18 00:43:52;;;;;;;7.20;2.43;;;11.50;99.90;;;;;;4993473;28;20245;-75
2022/09/18 00:46:30;;;;;;;9.87;2.17;;;11.40;99.90;;;;;;4980566;28;20223;-73
2022/09/18 00:49:12;;;;;;;10.17;2.97;;;11.40;99.90;;;;;;4995331;28;20286;-73
2022/09/18 00:51:42;;;;;;;10.40;2.40;;;11.40;99.90;;;;;;4995755;28;20213;-74
2022/09/18 00:54:18;;;;;;;8.67;2.50;;;11.40;99.90;;;;;;4999008;28;20237;-74
2022/09/18 00:56:46;;;;;;;9.70;2.47;;;11.50;99.90;;;;;;4997671;28;20241;-74
2022/09/18 00:59:18;;;;;;;8.80;3.20;;;11.40;99.90;;;;;;5003339;28;20291;-75
2022/09/18 01:01:45;;;;;;;10.40;2.80;;;11.40;99.90;;;;;;4997084;28;20219;-74
2022/09/18 01:04:12;;;;;;;10.27;2.77;;;11.40;99.90;;;;;;5002652;28;20638;-75
2022/09/18 01:07:10;;;;;;;13.97;3.20;;;11.30;99.90;;;;;;4999929;28;20208;-74
2022/09/18 01:09:59;;;;;;;10.77;2.53;;;11.40;99.90;;;;;;5000293;28;20206;-76
2022/09/18 01:12:41;;;;;;;11.80;2.87;;;11.40;99.90;;;;;;4997035;28;20226;-76
2022/09/18 01:15:19;;;;;;;7.33;2.50;;;11.40;99.90;;;;;;5002087;28;20433;-75
2022/09/18 01:18:15;;;;;;;8.50;3.10;;;11.40;99.90;;;;;;4996509;28;20267;-75
2022/09/18 01:21:11;;;;;;;9.17;2.57;;;11.40;99.90;;;;;;5001039;28;20210;-75
2022/09/18 01:24:05;;;;;;;11.67;3.40;;;11.50;99.90;;;;;;5003952;28;20232;-75
2022/09/18 01:26:53;;;;;;;8.77;2.67;;;11.40;99.90;;;;;;5006862;28;20295;-75
2022/09/18 01:29:29;;;;;;;9.30;2.57;;;11.40;99.90;;;;;;5000773;28;20244;-75
2022/09/18 01:32:18;;;;;;;6.83;2.87;;;11.50;99.90;;;;;;4998623;28;20249;-75
2022/09/18 01:34:57;;;;;;;9.17;3.27;;;11.50;99.90;;;;;;4998126;28;20763;-75
2022/09/18 01:38:02;;;;;;;9.13;2.97;;;11.50;99.90;;;;;;4994211;28;20282;-75
2022/09/18 01:40:35;;;;;;;14.13;3.60;;;11.50;99.90;;;;;;4995710;28;20283;-76
2022/09/18 01:43:07;;;;;;;13.63;3.20;;;11.40;99.90;;;;;;4997948;28;20242;-76
2022/09/18 01:45:41;;;;;;;14.83;2.90;;;11.40;99.90;;;;;;4996558;28;20256;-76
2022/09/18 01:48:14;;;;;;;11.17;2.70;;;11.50;99.90;;;;;;4998530;28;20566;-74
2022/09/18 01:50:48;;;;;;;15.30;4.57;;;11.50;99.90;;;;;;4995664;28;20237;-75
2022/09/18 01:53:21;;;;;;;14.63;2.70;;;11.50;99.90;;;;;;4994768;28;20699;-75
2022/09/18 01:55:58;;;;;;;12.10;3.17;;;11.50;99.90;;;;;;4988331;28;20207;-75
2022/09/18 01:58:27;;;;;;;14.63;3.23;;;11.50;99.90;;;;;;4990023;28;20301;-75
2022/09/18 02:00:59;;;;;;;14.40;3.37;;;11.50;99.90;;;;;;4981357;28;20257;-75
2022/09/18 02:03:28;;;;;;;8.20;2.60;;;11.50;99.90;;;;;;4995591;28;20596;-75
2022/09/18 02:06:04;;;;;;;11.27;2.83;;;11.60;99.90;;;;;;4997518;28;20785;-76
2022/09/18 02:08:38;;;;;;;11.03;2.90;;;11.60;99.90;;;;;;4994297;28;20214;-76
2022/09/18 02:11:10;;;;;;;11.10;3.10;;;11.60;99.90;;;;;;4999052;28;20570;-76
2022/09/18 02:13:53;;;;;;;20.37;3.13;;;11.60;99.90;;;;;;5000928;28;20233;-76
2022/09/18 02:16:30;;;;;;;11.80;2.83;;;11.70;99.90;;;;;;4998282;28;20558;-74
2022/09/18 02:19:04;;;;;;;10.50;2.77;;;11.60;99.90;;;;;;4978211;28;20222;-76
2022/09/18 02:21:32;;;;;;;10.60;2.80;;;11.70;99.90;;;;;;4997093;28;20209;-75
2022/09/18 02:24:09;;;;;;;10.93;2.50;;;11.70;99.90;;;;;;4979580;28;20205;-77
2022/09/18 02:26:39;;;;;;;13.40;3.00;;;11.70;99.90;;;;;;4997659;28;20763;-75
2022/09/18 02:29:08;;;;;;;10.67;3.10;;;11.80;99.90;;;;;;4997034;28;20272;-77
2022/09/18 02:31:38;;;;;;;21.40;3.10;;;11.80;99.90;;;;;;4995124;28;20255;-75
2022/09/18 02:34:08;;;;;;;11.90;3.10;;;11.80;99.90;;;;;;4994448;28;20234;-75
2022/09/18 02:36:45;;;;;;;12.27;2.67;;;11.80;99.90;;;;;;4998300;28;20305;-75
2022/09/18 02:39:14;;;;;;;9.13;2.40;;;11.80;99.90;;;;;;4998486;28;20216;-75
2022/09/18 02:42:00;;;;;;;11.17;2.40;;;11.80;99.90;;;;;;4999598;28;20526;-75
2022/09/18 02:44:34;;;;;;;11.00;4.03;;;11.80;99.90;;;;;;4995089;28;20203;-76
2022/09/18 02:47:12;;;;;;;11.17;2.50;;;11.80;99.90;;;;;;4993410;28;20312;-75
2022/09/18 02:50:03;;;;;;;4.43;2.00;;;11.80;99.90;;;;;;4986188;28;20214;-75
2022/09/18 02:52:39;;;;;;;8.93;2.80;;;11.80;99.90;;;;;;4995868;28;20214;-75
2022/09/18 02:55:14;;;;;;;12.50;2.90;;;11.80;99.90;;;;;;4999768;28;20210;-75
2022/09/18 02:58:04;;;;;;;8.47;2.10;;;11.80;99.90;;;;;;4994908;28;20230;-75
2022/09/18 03:00:31;;;;;;;11.27;2.73;;;11.80;99.90;;;;;;4999209;28;20207;-75
2022/09/18 03:02:58;;;;;;;9.07;2.40;;;11.80;99.90;;;;;;4982117;28;20639;-75
2022/09/18 03:05:25;;;;;;;9.90;2.80;;;11.80;99.90;;;;;;4998860;28;20678;-76
2022/09/18 03:07:55;;;;;;;10.50;2.30;;;11.90;99.90;;;;;;4994091;28;20644;-75
2022/09/18 03:10:22;;;;;;;9.80;2.00;;;11.90;99.90;;;;;;4998312;28;20317;-76
2022/09/18 03:12:49;;;;;;;9.73;2.30;;;11.90;99.90;;;;;;4999846;28;20320;-76
2022/09/18 03:15:16;;;;;;;6.97;1.93;;;11.90;99.90;;;;;;4999622;28;20220;-77
2022/09/18 03:17:42;;;;;;;5.63;2.57;;;11.80;99.90;;;;;;4999700;28;20236;-75
2022/09/18 03:20:09;;;;;;;6.67;2.27;;;11.80;99.90;;;;;;4994307;28;20261;-76
2022/09/18 03:22:36;;;;;;;9.47;2.60;;;11.80;99.90;;;;;;4994288;28;20213;-77
2022/09/18 03:25:03;;;;;;;13.30;3.20;;;11.90;99.90;;;;;;4996484;28;20845;-78
2022/09/18 03:27:30;;;;;;;10.83;2.70;;;11.90;99.90;;;;;;4981538;28;20317;-78
2022/09/18 03:29:57;;;;;;;13.23;2.40;;;11.90;99.90;;;;;;5000582;28;20241;-76
2022/09/18 03:32:24;;;;;;;10.93;2.17;;;11.90;99.90;;;;;;4991475;28;20298;-75
2022/09/18 03:34:51;;;;;;;7.73;2.07;;;11.90;99.90;;;;;;4996024;28;20744;-76
2022/09/18 03:37:17;;;;;;;7.30;2.20;;;12.00;99.90;;;;;;5002384;28;20202;-75
2022/09/18 03:39:44;;;;;;;10.77;2.13;;;12.00;99.90;;;;;;4995340;28;20290;-76
2022/09/18 03:42:14;;;;;;;8.93;2.90;;;12.00;99.90;;;;;;4982459;28;20294;-76
2022/09/18 03:44:40;;;;;;;7.33;2.20;;;12.00;99.90;;;;;;4993408;28;20653;-76
2022/09/18 03:47:10;;;;;;;8.87;2.53;;;12.00;99.90;;;;;;4995126;28;20289;-77
2022/09/18 03:49:37;;;;;;;15.33;2.23;;;12.00;99.90;;;;;;4998969;28;20310;-75
2022/09/18 03:52:04;;;;;;;11.30;2.50;;;12.00;99.90;;;;;;4997637;28;20211;-77
2022/09/18 03:54:31;;;;;;;10.93;2.93;;;11.90;99.90;;;;;;4992077;28;20230;-76
2022/09/18 03:56:57;;;;;;;15.33;3.13;;;12.00;99.90;;;;;;4999743;28;20202;-76
2022/09/18 03:59:24;;;;;;;9.83;2.60;;;12.00;99.90;;;;;;4999009;28;20231;-76
2022/09/18 04:01:51;;;;;;;11.60;2.70;;;12.00;99.90;;;;;;4994653;28;20222;-77
2022/09/18 04:04:18;;;;;;;11.63;3.20;;;12.00;99.90;;;;;;4977822;28;20298;-75
2022/09/18 04:06:45;;;;;;;14.27;2.80;;;12.00;99.90;;;;;;4970944;28;20203;-76
2022/09/18 04:09:11;;;;;;;11.20;2.80;;;12.10;99.90;;;;;;4995880;28;20199;-76
2022/09/18 04:11:38;;;;;;;10.93;2.77;;;12.20;99.90;;;;;;4998439;28;20208;-76
2022/09/18 04:14:05;;;;;;;12.97;2.60;;;12.10;99.90;;;;;;4990498;28;20603;-77
2022/09/18 04:16:32;;;;;;;9.77;2.23;;;12.20;99.90;;;;;;4994900;28;20207;-76
2022/09/18 04:18:59;;;;;;;10.83;2.80;;;12.20;99.90;;;;;;4995347;28;20737;-76
2022/09/18 04:21:26;;;;;;;6.10;2.20;;;12.20;99.90;;;;;;4989425;28;20203;-76
2022/09/18 04:23:54;;;;;;;7.20;2.10;;;12.20;99.90;;;;;;4999407;28;20210;-75
2022/09/18 04:26:21;;;;;;;6.57;2.27;;;12.20;99.90;;;;;;5003895;28;20240;-77
2022/09/18 04:28:48;;;;;;;9.50;2.30;;;12.20;99.90;;;;;;4973889;28;20736;-75
2022/09/18 04:31:14;;;;;;;9.93;2.17;;;12.10;99.90;;;;;;4975979;28;20662;-76
2022/09/18 04:33:41;;;;;;;8.97;2.60;;;12.20;99.90;;;;;;4977811;28;20240;-75
2022/09/18 04:36:08;;;;;;;9.27;2.13;;;12.20;99.90;;;;;;5001367;28;20215;-76
2022/09/18 04:38:36;;;;;;;5.47;2.00;;;12.20;99.90;;;;;;4998191;28;20199;-75
2022/09/18 04:41:03;;;;;;;9.70;3.37;;;12.10;99.90;;;;;;4999528;28;20845;-75
2022/09/18 04:43:31;;;;;;;11.20;2.33;;;12.10;99.90;;;;;;4978312;28;20301;-75
2022/09/18 04:45:57;;;;;;;13.83;3.17;;;12.00;99.90;;;;;;4994582;28;20249;-76
2022/09/18 04:48:24;;;;;;;11.13;2.40;;;12.00;99.90;;;;;;4992099;28;20205;-74
2022/09/18 04:50:51;;;;;;;13.07;3.67;;;12.00;99.90;;;;;;4970999;28;20222;-77
2022/09/18 04:53:19;;;;;;;8.30;2.00;;;12.00;99.90;;;;;;4992505;28;20309;-75
2022/09/18 04:55:46;;;;;;;7.63;2.13;;;12.00;99.90;;;;;;4994110;28;20199;-76
2022/09/18 04:58:15;;;;;;;7.93;1.90;;;12.00;99.90;;;;;;4990922;28;20242;-75
2022/09/18 05:00:42;;;;;;;9.23;2.10;;;12.10;99.90;;;;;;4972765;28;20209;-75
2022/09/18 05:03:09;;;;;;;9.30;2.10;;;12.00;99.90;;;;;;4990099;28;20208;-75
2022/09/18 05:05:36;;;;;;;6.00;2.30;;;12.00;99.90;;;;;;4997119;28;20260;-75
2022/09/18 05:08:03;;;;;;;8.33;2.27;;;11.90;99.90;;;;;;4996008;28;20298;-75
2022/09/18 05:10:31;;;;;;;8.77;2.00;;;12.00;99.90;;;;;;4998011;28;20220;-76
2022/09/18 05:12:57;;;;;;;8.57;2.50;;;11.90;99.90;;;;;;4985061;28;20213;-77
2022/09/18 05:15:24;;;;;;;13.77;2.70;;;12.00;99.90;;;;;;4960834;28;20302;-75
2022/09/18 05:18:02;;;;;;;8.50;2.70;;;12.00;99.90;;;;;;4996828;28;20219;-75
2022/09/18 05:20:34;;;;;;;9.43;2.57;;;12.00;99.90;;;;;;4994115;28;20637;-75
2022/09/18 05:23:01;;;;;;;8.00;2.40;;;12.00;99.90;;;;;;4991681;28;20319;-74
2022/09/18 05:25:28;;;;;;;10.87;3.03;;;12.00;99.90;;;;;;4991293;28;20209;-75
2022/09/18 05:27:57;;;;;;;6.43;1.80;;;12.00;99.90;;;;;;4999923;28;20290;-75
2022/09/18 05:30:25;;;;;;;14.90;2.60;;;11.90;99.90;;;;;;4992161;28;20325;-75
2022/09/18 05:32:54;;;;;;;13.83;2.27;;;12.00;99.90;;;;;;4981668;28;20254;-75
2022/09/18 05:35:27;;;;;;;9.37;2.70;;;12.00;99.90;;;;;;4970036;28;20242;-76
2022/09/18 05:37:55;;;;;;;11.63;2.30;;;11.90;99.90;;;;;;5003637;28;20289;-76
2022/09/18 05:40:25;;;;;;;7.73;2.33;;;12.00;99.90;;;;;;5001226;28;20580;-76
2022/09/18 05:42:52;;;;;;;8.27;2.60;;;12.00;99.90;;;;;;5000482;28;20219;-76
2022/09/18 05:45:20;;;;;;;10.73;2.27;;;12.00;99.90;;;;;;4981315;28;20300;-75
2022/09/18 05:48:13;;;;;;;6.43;2.40;;;12.00;99.90;;;;;;4997491;28;20281;-76
2022/09/18 05:50:41;;;;;;;6.60;2.17;;;12.00;99.90;;;;;;4982612;28;20296;-76
2022/09/18 05:53:16;;;;;;;11.27;2.20;;;12.00;99.90;;;;;;4995621;28;20290;-75
2022/09/18 05:55:43;;;;;;;12.93;2.40;;;12.00;99.90;;;;;;4998101;28;20690;-76
2022/09/18 05:58:15;;;;;;;8.43;2.53;;;12.00;99.90;;;;;;5008504;28;21046;-74
2022/09/18 06:00:46;;;;;;;11.40;3.10;;;12.00;99.90;;;;;;4987636;28;20242;-74
2022/09/18 06:03:14;;;;;;;10.20;3.07;;;12.10;99.90;;;;;;4997222;28;20309;-73
2022/09/18 06:05:42;;;;;;;14.60;4.23;;;12.10;99.90;;;;;;4994441;28;20202;-71
2022/09/18 06:08:11;;;;;;;9.73;2.90;;;12.20;99.90;;;;;;4998648;28;20210;-72
2022/09/18 06:10:39;;;;;;;9.13;2.73;;;12.20;99.90;;;;;;4998273;28;20648;-71
2022/09/18 06:13:12;;;;;;;11.73;2.57;;;12.20;99.90;;;;;;4995651;28;20728;-72
2022/09/18 06:15:39;;;;;;;5.77;2.40;;;12.20;99.90;;;;;;4997188;28;20203;-72
2022/09/18 06:18:08;;;;;;;12.07;2.50;;;12.30;99.90;;;;;;4998027;28;20230;-73
2022/09/18 06:20:35;;;;;;;7.67;2.40;;;12.30;99.90;;;;;;4988495;28;20280;-72
2022/09/18 06:23:03;;;;;;;11.30;3.03;;;12.30;99.90;;;;;;4990546;28;20207;-72
2022/09/18 06:25:30;;;;;;;7.23;2.40;;;12.30;99.90;;;;;;4994918;28;20554;-71
2022/09/18 06:27:59;;;;;;;9.47;2.20;;;12.30;99.90;;;;;;4996453;28;20217;-72
2022/09/18 06:30:27;;;;;;;11.47;2.50;;;12.30;99.90;;;;;;5000643;28;20333;-73
2022/09/18 06:32:55;;;;;;;7.17;2.97;;;12.30;99.90;;;;;;4991074;28;20428;-73
2022/09/18 06:35:23;;;;;;;12.00;2.90;;;12.30;99.90;;;;;;4977341;28;20810;-73
2022/09/18 06:37:49;;;;;;;9.10;2.47;;;12.30;99.90;;;;;;4977738;28;20852;-73
2022/09/18 06:40:16;;;;;;;10.80;3.17;;;12.30;99.90;;;;;;5000567;28;20285;-74
2022/09/18 06:42:43;;;;;;;10.87;2.90;;;12.20;99.90;;;;;;4995791;28;20206;-73
2022/09/18 06:45:11;;;;;;;7.87;2.50;;;12.20;99.90;;;;;;4989614;28;20317;-73
2022/09/18 06:47:41;;;;;;;7.87;3.13;;;12.20;99.90;;;;;;4999065;28;20259;-72
2022/09/18 06:50:08;;;;;;;8.23;2.70;;;12.20;99.90;;;;;;4996559;28;20215;-73
2022/09/18 06:52:35;;;;;;;8.17;2.43;;;12.30;99.90;;;;;;5000932;28;20310;-72
2022/09/18 06:55:02;;;;;;;9.47;2.60;;;12.20;99.90;;;;;;4996865;28;20345;-73
2022/09/18 06:57:30;;;;;;;12.90;2.83;;;12.30;99.90;;;;;;4981234;28;20207;-72
2022/09/18 06:59:56;;;;;;;10.73;4.33;;;12.30;99.90;;;;;;4981137;28;20269;-73
2022/09/18 07:02:23;;;;;;;11.63;2.70;;;12.30;99.90;;;;;;4997143;28;20219;-73
2022/09/18 07:04:51;;;;;;;6.37;2.70;;;12.30;99.90;;;;;;5000189;28;20222;-73
2022/09/18 07:07:21;;;;;;;9.87;2.30;;;12.40;99.90;;;;;;4982656;28;20203;-74
2022/09/18 07:09:48;;;;;;;7.83;2.13;;;12.50;99.90;;;;;;5000314;28;20202;-73
2022/09/18 07:12:14;;;;;;;9.67;2.57;;;12.30;99.90;;;;;;5001408;28;20624;-73
2022/09/18 07:14:41;;;;;;;8.63;2.13;;;12.30;99.90;;;;;;4996516;28;20277;-73
2022/09/18 07:17:11;;;;;;;9.17;2.30;;;12.30;99.90;;;;;;4975558;28;20297;-73
2022/09/18 07:19:44;;;;;;;10.37;2.63;;;12.30;99.90;;;;;;4997334;28;20687;-72
2022/09/18 07:22:10;;;;;;;10.20;2.60;;;12.30;99.90;;;;;;4999397;28;20233;-73
2022/09/18 07:24:38;;;;;;;7.47;2.10;;;12.30;99.90;;;;;;4996080;28;20251;-73
2022/09/18 07:27:04;;;;;;;8.60;2.07;;;12.30;99.90;;;;;;4996661;28;20296;-73
2022/09/18 07:29:31;;;;;;;9.07;1.90;;;12.30;99.90;;;;;;4998457;28;20274;-73
2022/09/18 07:31:58;;;;;;;10.63;2.40;;;12.30;99.90;;;;;;4993565;28;20270;-72
2022/09/18 07:34:25;;;;;;;10.43;2.30;;;12.30;99.90;;;;;;4999438;28;20304;-73
2022/09/18 07:36:52;;;;;;;11.23;2.10;;;12.40;99.90;;;;;;4997795;28;20215;-72
2022/09/18 07:39:19;;;;;;;6.97;1.97;;;12.40;99.90;;;;;;4999317;28;20297;-72
2022/09/18 07:41:45;;;;;;;7.13;1.93;;;12.40;99.90;;;;;;4998871;28;20210;-73
2022/09/18 07:44:12;;;;;;;7.73;2.37;;;12.40;99.90;;;;;;4999383;28;20217;-72
2022/09/18 07:46:39;;;;;;;7.60;2.87;;;12.40;99.90;;;;;;5002002;28;20222;-72
2022/09/18 07:49:06;;;;;;;7.00;2.50;;;12.40;99.90;;;;;;4997032;28;20677;-72
2022/09/18 07:51:32;;;;;;;8.17;2.47;;;12.40;99.90;;;;;;4997290;28;20268;-73
2022/09/18 07:53:59;;;;;;;6.90;1.90;;;12.50;99.90;;;;;;4997349;28;20346;-72
2022/09/18 07:56:26;;;;;;;3.67;1.70;;;12.50;99.90;;;;;;4998278;28;20207;-74
2022/09/18 07:58:53;;;;;;;9.10;1.90;;;12.60;99.90;;;;;;4993002;28;20245;-74
2022/09/18 08:01:19;;;;;;;8.03;4.80;;;12.60;99.90;;;;;;4996951;28;20229;-73
2022/09/18 08:03:46;;;;;;;6.70;1.73;;;12.60;99.90;;;;;;4996010;28;20294;-73
2022/09/18 08:06:13;;;;;;;11.23;9.17;;;12.60;99.90;;;;;;4998664;28;20294;-74
2022/09/18 08:08:40;;;;;;;11.83;8.20;;;12.60;99.90;;;;;;5001634;28;20234;-73
2022/09/18 08:11:07;;;;;;;9.93;4.27;;;12.70;99.90;;;;;;4978349;28;20218;-72
2022/09/18 08:13:34;;;;;;;11.83;4.40;;;12.70;99.90;;;;;;4997953;28;20286;-74
2022/09/18 08:16:02;;;;;;;8.23;3.23;;;12.70;99.90;;;;;;4996681;28;20317;-74
2022/09/18 08:18:37;;;;;;;8.60;3.60;;;12.70;99.90;;;;;;4997006;28;20345;-74
2022/09/18 08:21:04;;;;;;;6.70;3.20;;;12.80;99.90;;;;;;4999085;28;20268;-74
2022/09/18 08:23:36;;;;;;;12.80;6.27;;;12.80;99.90;;;;;;4998425;28;20213;-74
2022/09/18 08:26:03;;;;;;;7.33;2.70;;;12.90;99.90;;;;;;5000015;28;20302;-74
2022/09/18 08:28:30;;;;;;;10.13;3.20;;;12.90;99.90;;;;;;4997688;28;20759;-74
2022/09/18 08:30:58;;;;;;;7.60;3.90;;;12.90;99.90;;;;;;4995903;28;20584;-74
2022/09/18 08:33:25;;;;;;;7.10;2.83;;;13.00;99.90;;;;;;4995022;28;20720;-74
2022/09/18 08:35:53;;;;;;;5.93;3.23;;;13.00;99.90;;;;;;4996883;28;20358;-75
2022/09/18 08:38:20;;;;;;;9.03;4.40;;;12.90;99.90;;;;;;4998885;28;20305;-75
2022/09/18 08:40:59;;;;;;;9.93;3.00;;;13.00;99.90;;;;;;4995918;28;20207;-74
2022/09/18 08:43:41;;;;;;;8.17;2.53;;;13.00;99.90;;;;;;4993324;28;20209;-75
2022/09/18 08:46:17;;;;;;;3.43;1.97;;;13.00;99.90;;;;;;4961123;28;20265;-74
2022/09/18 08:49:06;;;;;;;5.93;1.87;;;13.00;99.90;;;;;;4984611;28;20570;-73
2022/09/18 08:52:02;;;;;;;7.10;3.67;;;13.10;99.90;;;;;;4994409;28;20214;-74
2022/09/18 08:54:56;;;;;;;7.27;2.20;;;13.10;99.90;;;;;;4993196;28;20234;-74
2022/09/18 08:57:43;;;;;;;7.17;3.17;;;13.20;99.90;;;;;;4997501;28;20203;-74
2022/09/18 09:00:15;;;;;;;10.20;4.10;;;13.20;99.90;;;;;;4998098;28;20213;-74
2022/09/18 09:03:01;;;;;;;27.03;15.53;;;13.20;99.90;;;;;;4999578;28;20784;-75
2022/09/18 09:05:36;;;;;;;10.10;5.63;;;13.30;99.90;;;;;;4997142;28;20218;-73
2022/09/18 09:08:32;;;;;;;4.60;2.43;;;13.30;99.90;;;;;;4998133;28;20206;-74
2022/09/18 09:11:11;;;;;;;6.73;2.50;;;13.40;99.90;;;;;;4914614;28;20300;-73
2022/09/18 09:13:41;;;;;;;5.57;3.53;;;13.40;99.90;;;;;;4999485;28;20213;-75
2022/09/18 09:16:15;;;;;;;4.77;3.27;;;13.40;99.90;;;;;;4983932;28;20260;-74
2022/09/18 09:18:55;;;;;;;5.47;3.23;;;13.50;99.90;;;;;;4984679;28;20325;-77
2022/09/18 09:21:32;;;;;;;6.57;1.77;;;13.50;99.90;;;;;;5000847;28;20211;-75
2022/09/18 09:24:27;;;;;;;3.53;1.77;;;13.50;99.90;;;;;;4998151;28;20286;-76
2022/09/18 09:26:55;;;;;;;7.27;2.90;;;13.60;99.90;;;;;;5004744;28;20602;-74
2022/09/18 09:29:30;;;;;;;8.40;3.80;;;13.60;99.90;;;;;;5000689;28;20243;-75
2022/09/18 09:32:09;;;;;;;5.63;2.50;;;13.60;99.90;;;;;;4994113;28;20254;-75
2022/09/18 09:34:42;;;;;;;7.27;3.70;;;13.70;99.90;;;;;;4999458;28;20778;-75
2022/09/18 09:37:22;;;;;;;8.57;3.10;;;13.70;99.90;;;;;;5004565;28;20253;-74
2022/09/18 09:40:01;;;;;;;5.50;3.53;;;13.70;99.90;;;;;;4996099;28;20316;-74
2022/09/18 09:42:39;;;;;;;9.20;4.23;;;13.60;99.90;;;;;;4997592;28;20211;-75
2022/09/18 09:45:24;;;;;;;5.57;2.63;;;13.70;99.90;;;;;;4999038;28;20226;-74
2022/09/18 09:47:59;;;;;;;5.90;3.50;;;13.60;99.90;;;;;;4996865;28;20576;-74
2022/09/18 09:50:43;;;;;;;6.70;1.80;;;13.70;99.90;;;;;;5001576;28;20290;-75
2022/09/18 09:53:12;;;;;;;4.97;1.77;;;13.70;99.90;;;;;;5000274;28;20289;-75
2022/09/18 09:56:00;;;;;;;4.67;1.63;;;13.70;99.90;;;;;;4998468;28;20231;-73
2022/09/18 09:58:46;;;;;;;3.67;1.27;;;13.80;99.90;;;;;;4985947;28;21043;-73
2022/09/18 10:01:21;;;;;;;6.03;1.40;;;13.70;99.90;;;;;;4992106;28;20321;-75
2022/09/18 10:04:11;;;;;;;6.37;1.33;;;13.70;99.90;;;;;;4988817;28;20211;-73
2022/09/18 10:07:06;;;;;;;4.10;1.50;;;13.70;99.90;;;;;;4995218;28;20239;-73
2022/09/18 10:10:00;;;;;;;3.87;1.17;;;13.60;99.90;;;;;;4993567;28;20191;-73
2022/09/18 10:12:50;;;;;;;2.63;1.30;;;13.70;99.90;;;;;;4974808;28;20203;-73
2022/09/18 10:15:22;;;;;;;4.80;1.77;;;13.70;99.90;;;;;;4996748;28;20594;-74
2022/09/18 10:17:52;;;;;;;7.63;2.50;;;13.70;99.90;;;;;;4996483;28;20305;-72
2022/09/18 10:20:27;;;;;;;5.27;3.17;;;13.70;99.90;;;;;;4998274;28;20237;-73
2022/09/18 10:22:57;;;;;;;8.40;2.43;;;13.70;99.90;;;;;;4995799;28;20562;-74
2022/09/18 10:25:37;;;;;;;6.77;2.77;;;13.80;99.90;;;;;;4982240;28;20230;-73
2022/09/18 10:28:04;;;;;;;16.87;6.93;;;13.80;99.90;;;;;;5002282;28;20669;-72
2022/09/18 10:30:31;;;;;;;5.47;2.80;;;13.80;99.90;;;;;;4996314;28;20250;-74
2022/09/18 10:33:00;;;;;;;5.13;1.60;;;13.80;99.90;;;;;;4999286;28;20216;-73
2022/09/18 10:35:29;;;;;;;4.93;1.50;;;13.80;99.90;;;;;;4999719;28;20617;-72
2022/09/18 10:37:58;;;;;;;2.47;1.77;;;13.90;99.90;;;;;;5000484;28;20667;-74
2022/09/18 10:40:36;;;;;;;4.00;1.30;;;13.90;99.90;;;;;;5001105;28;20194;-73
2022/09/18 10:43:05;;;;;;;5.07;1.27;;;14.00;99.90;;;;;;4980202;28;20261;-74
2022/09/18 10:45:40;;;;;;;4.50;1.30;;;14.00;99.90;;;;;;4993975;28;20285;-73
2022/09/18 10:48:19;;;;;;;4.23;1.50;;;14.00;99.90;;;;;;4980704;28;20211;-73
2022/09/18 10:50:58;;;;;;;9.07;1.70;;;14.00;99.90;;;;;;4993155;28;20542;-73
2022/09/18 10:53:32;;;;;;;10.83;3.03;;;14.00;99.90;;;;;;4988301;28;20390;-73
2022/09/18 10:56:18;;;;;;;8.40;2.50;;;14.00;99.90;;;;;;4995797;28;20227;-72
2022/09/18 10:58:45;;;;;;;9.27;3.50;;;14.00;99.90;;;;;;4992701;28;20248;-74
2022/09/18 11:01:13;;;;;;;8.23;3.17;;;14.00;99.90;;;;;;4967052;28;20318;-73
2022/09/18 11:03:41;;;;;;;8.23;2.90;;;14.00;99.90;;;;;;4984923;28;20273;-72
2022/09/18 11:06:24;;;;;;;5.40;1.80;;;13.90;99.90;;;;;;4971659;28;20792;-71
2022/09/18 11:08:55;;;;;;;8.03;2.13;;;13.90;99.90;;;;;;4996777;28;20297;-70
2022/09/18 11:11:31;;;;;;;7.73;1.60;;;13.80;99.90;;;;;;4997744;28;20214;-70
2022/09/18 11:14:03;;;;;;;7.87;1.90;;;13.80;99.90;;;;;;4999002;28;20218;-70
2022/09/18 11:16:35;;;;;;;5.33;2.20;;;13.70;99.90;;;;;;4995543;28;20268;-70
2022/09/18 11:19:17;;;;;;;7.10;2.10;;;13.60;99.90;;;;;;4992832;28;20200;-70
2022/09/18 11:21:49;;;;;;;2.90;1.30;;;13.40;99.90;;;;;;4995826;28;20217;-71
2022/09/18 11:24:24;;;;;;;6.17;1.40;;;13.30;99.90;;;;;;4994063;28;20213;-70
2022/09/18 11:26:56;;;;;;;3.47;2.73;;;13.20;99.90;;;;;;4990674;28;20813;-71
2022/09/18 11:29:31;;;;;;;5.07;1.90;;;13.20;99.90;;;;;;4975593;28;20648;-72
2022/09/18 11:32:29;;;;;;;4.93;1.20;;;13.10;99.90;;;;;;4982671;28;20717;-71
2022/09/18 11:35:04;;;;;;;5.43;1.20;;;13.10;99.90;;;;;;4989935;28;20235;-72
2022/09/18 11:37:42;;;;;;;1.87;0.93;;;13.00;99.90;;;;;;4983113;28;20198;-73
2022/09/18 11:40:22;;;;;;;5.23;1.77;;;13.10;99.90;;;;;;4977218;28;20214;-72
2022/09/18 11:42:51;;;;;;;4.33;2.30;;;13.10;99.90;;;;;;4991412;28;20207;-72
2022/09/18 11:45:41;;;;;;;3.87;2.60;;;13.20;99.90;;;;;;4998836;28;20587;-72
2022/09/18 11:48:26;;;;;;;7.63;1.80;;;13.10;99.90;;;;;;4995120;28;20209;-71
2022/09/18 11:51:00;;;;;;;7.53;1.20;;;13.10;99.90;;;;;;4998990;28;20553;-72
2022/09/18 11:53:31;;;;;;;6.07;1.73;;;13.10;99.90;;;;;;4998709;28;20213;-70
2022/09/18 11:56:15;;;;;;;6.17;1.50;;;13.20;99.90;;;;;;4997956;28;20245;-68
2022/09/18 11:58:47;;;;;;;6.70;1.53;;;13.10;99.90;;;;;;4988931;28;20202;-68
2022/09/18 12:01:20;;;;;;;8.13;1.20;;;13.10;99.90;;;;;;4994063;28;20231;-69
2022/09/18 12:04:11;;;;;;;3.40;0.80;;;13.00;99.90;;;;;;4978553;28;20207;-68
2022/09/18 12:06:54;;;;;;;4.37;1.63;;;12.80;99.90;;;;;;4996160;28;20294;-68
2022/09/18 12:09:41;;;;;;;1.73;1.07;;;12.60;99.90;;;;;;4993845;28;20198;-68
2022/09/18 12:12:15;;;;;;;2.20;1.27;;;12.50;99.90;;;;;;4967325;28;20301;-69
2022/09/18 12:14:50;;;;;;;7.70;3.20;;;12.30;99.90;;;;;;4996574;28;20285;-69
2022/09/18 12:17:36;;;;;;;4.23;1.53;;;12.20;99.90;;;;;;4965701;28;20222;-69
2022/09/18 12:20:10;;;;;;;7.83;2.77;;;12.20;99.90;;;;;;4990614;28;20202;-70
2022/09/18 12:22:57;;;;;;;8.97;2.80;;;12.20;99.90;;;;;;4990579;28;20659;-69
2022/09/18 12:25:47;;;;;;;8.67;4.80;;;12.20;99.90;;;;;;4994074;28;20214;-71
2022/09/18 12:28:53;;;;;;;5.40;4.93;;;12.20;99.90;;;;;;4983285;28;20550;-70
2022/09/18 12:31:31;;;;;;;9.37;6.07;;;12.30;99.90;;;;;;4969154;28;20227;-70
2022/09/18 12:34:09;;;;;;;4.07;2.20;;;12.30;99.90;;;;;;4959880;28;20655;-70
2022/09/18 12:36:46;;;;;;;7.43;3.57;;;12.30;99.90;;;;;;4975616;28;20611;-70
2022/09/18 12:39:53;;;;;;;6.60;4.73;;;12.30;99.90;;;;;;4971913;28;20225;-70
2022/09/18 12:42:53;;;;;;;39.00;23.07;;;12.20;99.90;;;;;;4954291;28;20203;-71
2022/09/18 12:45:31;;;;;;;36.73;19.57;;;12.10;99.90;;;;;;4978454;28;20664;-70
2022/09/18 12:48:00;;;;;;;54.17;24.77;;;12.00;99.90;;;;;;4981330;28;20219;-70
2022/09/18 12:50:40;;;;;;;24.40;11.03;;;12.00;99.90;;;;;;4971258;28;20570;-70
2022/09/18 12:53:13;;;;;;;23.40;10.33;;;12.00;99.90;;;;;;4970306;28;20303;-71
2022/09/18 12:56:06;;;;;;;6.27;3.57;;;12.00;99.90;;;;;;4970528;28;20227;-71
2022/09/18 12:58:58;;;;;;;17.23;8.70;;;12.00;99.90;;;;;;4946229;28;20740;-71
2022/09/18 13:01:33;;;;;;;6.90;2.83;;;11.90;99.90;;;;;;4968179;28;20227;-72
2022/09/18 13:04:12;;;;;;;7.30;2.40;;;11.90;99.90;;;;;;4975873;28;20306;-71
2022/09/18 13:06:47;;;;;;;8.20;2.73;;;12.00;99.90;;;;;;4974111;28;20221;-69
2022/09/18 13:09:22;;;;;;;5.90;2.70;;;12.00;99.90;;;;;;4975716;28;20296;-70
2022/09/18 13:11:58;;;;;;;13.70;6.53;;;12.00;99.90;;;;;;4962152;28;20241;-71
2022/09/18 13:14:42;;;;;;;5.80;2.97;;;12.00;99.90;;;;;;4976043;28;20359;-71